sensor_id;sensor_type;location;lat;lon;timestamp;pressure;altitude;pressure_sealevel;temperature;humidity
45813;BME280;31519;45.408;10.962;2023-02-27T00:02:07;100330.41;;;9.60;37.86
45813;BME280;31519;45.408;10.962;2023-02-27T00:04:35;100331.53;;;9.45;37.80
45813;BME280;31519;45.408;10.962;2023-02-27T00:07:03;100333.31;;;9.72;37.71
45813;BME280;31519;45.408;10.962;2023-02-27T00:09:32;100339.41;;;9.50;38.08
45813;BME280;31519;45.408;10.962;2023-02-27T00:12:01;100343.03;;;9.54;37.86
45813;BME280;31519;45.408;10.962;2023-02-27T00:14:29;100354.97;;;9.57;37.92
45813;BME280;31519;45.408;10.962;2023-02-27T00:16:57;100360.22;;;9.34;38.32
45813;BME280;31519;45.408;10.962;2023-02-27T00:19:25;100371.31;;;9.50;38.81
45813;BME280;31519;45.408;10.962;2023-02-27T00:21:54;100384.31;;;9.52;39.95
45813;BME280;31519;45.408;10.962;2023-02-27T00:24:22;100388.66;;;9.48;40.47
45813;BME280;31519;45.408;10.962;2023-02-27T00:26:50;100397.19;;;9.58;41.08
45813;BME280;31519;45.408;10.962;2023-02-27T00:29:18;100401.16;;;9.47;42.44
45813;BME280;31519;45.408;10.962;2023-02-27T00:31:51;100407.88;;;9.17;44.12
45813;BME280;31519;45.408;10.962;2023-02-27T00:34:19;100406.91;;;9.13;45.12
45813;BME280;31519;45.408;10.962;2023-02-27T00:36:48;100401.88;;;9.39;44.48
45813;BME280;31519;45.408;10.962;2023-02-27T00:39:16;100398.22;;;9.21;45.19
45813;BME280;31519;45.408;10.962;2023-02-27T00:41:44;100403.06;;;9.06;45.70
45813;BME280;31519;45.408;10.962;2023-02-27T00:44:12;100405.63;;;8.97;45.77
45813;BME280;31519;45.408;10.962;2023-02-27T00:46:41;100409.00;;;9.03;46.32
45813;BME280;31519;45.408;10.962;2023-02-27T00:49:08;100403.25;;;9.09;45.85
45813;BME280;31519;45.408;10.962;2023-02-27T00:51:37;100405.44;;;9.21;45.76
45813;BME280;31519;45.408;10.962;2023-02-27T00:54:05;100410.75;;;9.34;45.68
45813;BME280;31519;45.408;10.962;2023-02-27T00:56:33;100410.41;;;9.36;45.58
45813;BME280;31519;45.408;10.962;2023-02-27T00:59:01;100412.41;;;9.17;45.94
45813;BME280;31519;45.408;10.962;2023-02-27T01:01:30;100418.03;;;9.15;46.11
45813;BME280;31519;45.408;10.962;2023-02-27T01:03:58;100418.03;;;9.15;45.94
45813;BME280;31519;45.408;10.962;2023-02-27T01:06:26;100419.88;;;9.42;45.65
45813;BME280;31519;45.408;10.962;2023-02-27T01:08:54;100430.41;;;9.47;45.75
45813;BME280;31519;45.408;10.962;2023-02-27T01:11:25;100430.50;;;9.56;45.41
45813;BME280;31519;45.408;10.962;2023-02-27T01:13:53;100431.28;;;9.43;45.52
45813;BME280;31519;45.408;10.962;2023-02-27T01:16:22;100433.56;;;9.35;45.71
45813;BME280;31519;45.408;10.962;2023-02-27T01:18:51;100430.50;;;9.42;45.52
45813;BME280;31519;45.408;10.962;2023-02-27T01:21:19;100437.78;;;9.37;45.44
45813;BME280;31519;45.408;10.962;2023-02-27T01:23:48;100439.97;;;9.34;45.61
45813;BME280;31519;45.408;10.962;2023-02-27T01:26:19;100441.94;;;9.29;45.51
45813;BME280;31519;45.408;10.962;2023-02-27T01:28:47;100439.19;;;9.34;45.48
45813;BME280;31519;45.408;10.962;2023-02-27T01:31:15;100438.28;;;9.39;45.49
45813;BME280;31519;45.408;10.962;2023-02-27T01:33:43;100434.84;;;9.52;45.25
45813;BME280;31519;45.408;10.962;2023-02-27T01:36:12;100441.91;;;9.56;45.21
45813;BME280;31519;45.408;10.962;2023-02-27T01:38:41;100432.28;;;9.47;44.93
45813;BME280;31519;45.408;10.962;2023-02-27T01:41:10;100431.31;;;9.29;45.17
45813;BME280;31519;45.408;10.962;2023-02-27T01:43:58;100436.44;;;9.39;45.28
45813;BME280;31519;45.408;10.962;2023-02-27T01:46:28;100438.28;;;9.52;44.70
45813;BME280;31519;45.408;10.962;2023-02-27T01:49:04;100441.63;;;9.44;45.53
45813;BME280;31519;45.408;10.962;2023-02-27T01:51:44;100437.69;;;9.55;44.85
45813;BME280;31519;45.408;10.962;2023-02-27T01:54:16;100444.38;;;9.53;44.39
45813;BME280;31519;45.408;10.962;2023-02-27T01:56:46;100441.16;;;9.28;45.00
45813;BME280;31519;45.408;10.962;2023-02-27T01:59:15;100446.34;;;9.47;44.48
45813;BME280;31519;45.408;10.962;2023-02-27T02:01:44;100453.34;;;9.57;44.98
45813;BME280;31519;45.408;10.962;2023-02-27T02:04:25;100455.41;;;9.46;44.84
45813;BME280;31519;45.408;10.962;2023-02-27T02:07:04;100445.16;;;9.40;44.92
45813;BME280;31519;45.408;10.962;2023-02-27T02:09:38;100447.25;;;9.43;44.67
45813;BME280;31519;45.408;10.962;2023-02-27T02:12:11;100444.00;;;9.32;44.90
45813;BME280;31519;45.408;10.962;2023-02-27T02:14:43;100451.88;;;9.37;44.70
45813;BME280;31519;45.408;10.962;2023-02-27T02:22:57;100452.06;;;9.27;44.13
45813;BME280;31519;45.408;10.962;2023-02-27T02:42:30;100460.63;;;9.10;44.58
45813;BME280;31519;45.408;10.962;2023-02-27T02:45:28;100466.94;;;9.14;43.99
45813;BME280;31519;45.408;10.962;2023-02-27T02:48:13;100474.63;;;9.16;44.17
45813;BME280;31519;45.408;10.962;2023-02-27T02:51:00;100482.19;;;9.36;43.46
45813;BME280;31519;45.408;10.962;2023-02-27T02:56:30;100495.09;;;8.69;44.23
45813;BME280;31519;45.408;10.962;2023-02-27T02:59:11;100500.97;;;8.99;44.25
45813;BME280;31519;45.408;10.962;2023-02-27T03:02:05;100487.81;;;9.07;43.76
45813;BME280;31519;45.408;10.962;2023-02-27T03:10:08;100499.59;;;9.01;43.37
45813;BME280;31519;45.408;10.962;2023-02-27T03:12:41;100497.16;;;9.18;43.10
45813;BME280;31519;45.408;10.962;2023-02-27T03:15:27;100502.16;;;9.06;43.46
45813;BME280;31519;45.408;10.962;2023-02-27T03:18:15;100515.34;;;8.98;43.35
45813;BME280;31519;45.408;10.962;2023-02-27T03:20:57;100509.53;;;8.96;43.15
45813;BME280;31519;45.408;10.962;2023-02-27T03:23:47;100520.53;;;8.57;44.37
45813;BME280;31519;45.408;10.962;2023-02-27T03:26:20;100520.28;;;8.72;43.81
45813;BME280;31519;45.408;10.962;2023-02-27T03:29:04;100519.44;;;8.58;44.21
45813;BME280;31519;45.408;10.962;2023-02-27T03:31:43;100521.97;;;8.81;43.68
45813;BME280;31519;45.408;10.962;2023-02-27T03:34:20;100522.25;;;8.80;43.79
45813;BME280;31519;45.408;10.962;2023-02-27T03:37:14;100523.28;;;8.84;43.67
45813;BME280;31519;45.408;10.962;2023-02-27T03:39:55;100523.59;;;8.96;43.71
45813;BME280;31519;45.408;10.962;2023-02-27T03:42:45;100529.50;;;8.93;43.74
45813;BME280;31519;45.408;10.962;2023-02-27T03:48:21;100535.50;;;8.99;43.71
45813;BME280;31519;45.408;10.962;2023-02-27T03:50:51;100538.03;;;8.90;43.15
45813;BME280;31519;45.408;10.962;2023-02-27T03:53:29;100545.84;;;9.00;43.03
45813;BME280;31519;45.408;10.962;2023-02-27T03:56:02;100541.13;;;8.97;43.13
45813;BME280;31519;45.408;10.962;2023-02-27T03:58:32;100550.53;;;8.89;43.29
45813;BME280;31519;45.408;10.962;2023-02-27T04:01:01;100550.84;;;8.88;42.89
45813;BME280;31519;45.408;10.962;2023-02-27T04:03:33;100544.94;;;8.91;42.75
45813;BME280;31519;45.408;10.962;2023-02-27T04:06:03;100542.88;;;8.88;43.22
45813;BME280;31519;45.408;10.962;2023-02-27T04:09:07;100540.03;;;8.98;42.31
45813;BME280;31519;45.408;10.962;2023-02-27T04:17:15;100545.22;;;8.89;42.04
45813;BME280;31519;45.408;10.962;2023-02-27T04:27:55;100552.22;;;8.99;42.12
45813;BME280;31519;45.408;10.962;2023-02-27T04:33:28;100555.50;;;9.10;41.61
45813;BME280;31519;45.408;10.962;2023-02-27T04:36:09;100566.34;;;9.13;41.42
45813;BME280;31519;45.408;10.962;2023-02-27T04:38:43;100561.56;;;8.97;41.82
45813;BME280;31519;45.408;10.962;2023-02-27T04:41:19;100557.50;;;8.85;42.22
45813;BME280;31519;45.408;10.962;2023-02-27T04:43:50;100564.41;;;8.86;41.86
45813;BME280;31519;45.408;10.962;2023-02-27T04:46:22;100562.66;;;8.96;42.20
45813;BME280;31519;45.408;10.962;2023-02-27T04:49:12;100565.53;;;9.13;42.23
45813;BME280;31519;45.408;10.962;2023-02-27T04:51:55;100563.16;;;8.98;41.47
45813;BME280;31519;45.408;10.962;2023-02-27T04:54:38;100563.53;;;8.91;41.61
45813;BME280;31519;45.408;10.962;2023-02-27T04:57:11;100560.91;;;9.05;41.15
45813;BME280;31519;45.408;10.962;2023-02-27T04:59:48;100570.53;;;9.01;40.98
45813;BME280;31519;45.408;10.962;2023-02-27T05:02:22;100568.56;;;8.93;41.18
45813;BME280;31519;45.408;10.962;2023-02-27T05:04:58;100572.00;;;8.93;41.47
45813;BME280;31519;45.408;10.962;2023-02-27T05:07:36;100568.25;;;8.94;41.05
45813;BME280;31519;45.408;10.962;2023-02-27T05:10:20;100561.53;;;9.15;40.71
45813;BME280;31519;45.408;10.962;2023-02-27T05:12:59;100565.56;;;9.26;40.44
45813;BME280;31519;45.408;10.962;2023-02-27T05:15:35;100562.91;;;9.26;40.91
45813;BME280;31519;45.408;10.962;2023-02-27T05:18:12;100563.09;;;9.16;41.21
45813;BME280;31519;45.408;10.962;2023-02-27T05:20:50;100566.56;;;9.30;41.19
45813;BME280;31519;45.408;10.962;2023-02-27T05:29:00;100558.47;;;9.22;41.10
45813;BME280;31519;45.408;10.962;2023-02-27T05:31:47;100557.56;;;9.13;40.94
45813;BME280;31519;45.408;10.962;2023-02-27T05:34:26;100576.78;;;9.23;40.69
45813;BME280;31519;45.408;10.962;2023-02-27T05:37:37;100575.03;;;9.32;40.44
45813;BME280;31519;45.408;10.962;2023-02-27T05:40:11;100577.00;;;9.27;40.52
45813;BME280;31519;45.408;10.962;2023-02-27T05:42:46;100576.19;;;9.26;40.30
45813;BME280;31519;45.408;10.962;2023-02-27T05:45:22;100582.22;;;9.32;40.42
45813;BME280;31519;45.408;10.962;2023-02-27T05:47:57;100583.09;;;9.27;39.79
45813;BME280;31519;45.408;10.962;2023-02-27T05:50:29;100596.50;;;9.50;39.86
45813;BME280;31519;45.408;10.962;2023-02-27T05:53:02;100588.72;;;9.40;40.04
45813;BME280;31519;45.408;10.962;2023-02-27T05:55:42;100591.34;;;9.26;39.78
45813;BME280;31519;45.408;10.962;2023-02-27T06:01:05;100596.50;;;9.50;39.70
45813;BME280;31519;45.408;10.962;2023-02-27T06:03:35;100596.69;;;9.40;39.61
45813;BME280;31519;45.408;10.962;2023-02-27T06:06:07;100593.34;;;9.34;39.61
45813;BME280;31519;45.408;10.962;2023-02-27T06:08:36;100599.63;;;9.24;40.12
45813;BME280;31519;45.408;10.962;2023-02-27T06:11:04;100606.25;;;9.41;39.76
45813;BME280;31519;45.408;10.962;2023-02-27T06:13:32;100618.66;;;9.45;39.80
45813;BME280;31519;45.408;10.962;2023-02-27T06:16:00;100618.09;;;9.48;39.67
45813;BME280;31519;45.408;10.962;2023-02-27T06:18:29;100627.22;;;9.28;39.49
45813;BME280;31519;45.408;10.962;2023-02-27T06:20:57;100625.06;;;9.44;39.48
45813;BME280;31519;45.408;10.962;2023-02-27T06:23:25;100628.81;;;9.43;39.43
45813;BME280;31519;45.408;10.962;2023-02-27T06:25:53;100630.59;;;9.48;40.07
45813;BME280;31519;45.408;10.962;2023-02-27T06:28:21;100637.75;;;9.33;40.08
45813;BME280;31519;45.408;10.962;2023-02-27T06:30:53;100641.63;;;9.55;39.67
45813;BME280;31519;45.408;10.962;2023-02-27T06:33:23;100643.03;;;9.52;39.49
45813;BME280;31519;45.408;10.962;2023-02-27T06:35:52;100645.66;;;9.39;39.70
45813;BME280;31519;45.408;10.962;2023-02-27T06:38:20;100641.09;;;9.25;39.21
45813;BME280;31519;45.408;10.962;2023-02-27T06:40:50;100649.81;;;9.58;39.35
45813;BME280;31519;45.408;10.962;2023-02-27T06:43:18;100649.25;;;9.29;39.22
45813;BME280;31519;45.408;10.962;2023-02-27T06:45:53;100661.41;;;9.49;39.51
45813;BME280;31519;45.408;10.962;2023-02-27T06:48:21;100664.50;;;9.23;39.30
45813;BME280;31519;45.408;10.962;2023-02-27T06:50:52;100664.41;;;9.28;39.88
45813;BME280;31519;45.408;10.962;2023-02-27T06:53:21;100672.88;;;9.30;38.97
45813;BME280;31519;45.408;10.962;2023-02-27T06:55:50;100681.16;;;9.29;39.45
45813;BME280;31519;45.408;10.962;2023-02-27T06:58:18;100684.75;;;9.19;39.38
45813;BME280;31519;45.408;10.962;2023-02-27T07:00:46;100689.16;;;9.10;39.54
45813;BME280;31519;45.408;10.962;2023-02-27T07:03:15;100691.22;;;9.13;39.09
45813;BME280;31519;45.408;10.962;2023-02-27T07:05:43;100693.56;;;9.33;39.42
45813;BME280;31519;45.408;10.962;2023-02-27T07:08:11;100701.72;;;9.56;39.41
45813;BME280;31519;45.408;10.962;2023-02-27T07:10:40;100703.38;;;9.19;39.75
45813;BME280;31519;45.408;10.962;2023-02-27T07:13:11;100704.88;;;9.25;39.94
45813;BME280;31519;45.408;10.962;2023-02-27T07:15:43;100707.91;;;9.00;40.09
45813;BME280;31519;45.408;10.962;2023-02-27T07:18:12;100714.19;;;9.23;40.09
45813;BME280;31519;45.408;10.962;2023-02-27T07:20:39;100717.06;;;9.08;40.46
45813;BME280;31519;45.408;10.962;2023-02-27T07:23:08;100717.06;;;9.26;40.20
45813;BME280;31519;45.408;10.962;2023-02-27T07:25:37;100718.38;;;9.10;40.29
45813;BME280;31519;45.408;10.962;2023-02-27T07:28:05;100722.75;;;9.39;40.63
45813;BME280;31519;45.408;10.962;2023-02-27T07:30:33;100735.47;;;8.85;40.58
45813;BME280;31519;45.408;10.962;2023-02-27T07:33:02;100732.25;;;8.88;40.41
45813;BME280;31519;45.408;10.962;2023-02-27T07:35:30;100739.69;;;8.86;40.40
45813;BME280;31519;45.408;10.962;2023-02-27T07:37:58;100744.88;;;8.97;40.53
45813;BME280;31519;45.408;10.962;2023-02-27T07:40:26;100740.78;;;9.23;39.65
45813;BME280;31519;45.408;10.962;2023-02-27T07:42:55;100750.94;;;9.02;40.35
45813;BME280;31519;45.408;10.962;2023-02-27T07:45:23;100752.63;;;9.30;40.13
45813;BME280;31519;45.408;10.962;2023-02-27T07:47:51;100759.56;;;9.45;39.50
45813;BME280;31519;45.408;10.962;2023-02-27T07:50:19;100760.69;;;9.25;39.59
45813;BME280;31519;45.408;10.962;2023-02-27T07:52:47;100763.63;;;9.43;39.12
45813;BME280;31519;45.408;10.962;2023-02-27T07:55:15;100762.69;;;9.15;39.37
45813;BME280;31519;45.408;10.962;2023-02-27T07:57:44;100762.19;;;9.13;39.61
45813;BME280;31519;45.408;10.962;2023-02-27T08:00:13;100763.91;;;9.22;39.19
45813;BME280;31519;45.408;10.962;2023-02-27T08:02:42;100764.03;;;9.50;38.85
45813;BME280;31519;45.408;10.962;2023-02-27T08:05:10;100775.69;;;9.35;38.80
45813;BME280;31519;45.408;10.962;2023-02-27T08:07:38;100774.31;;;9.38;38.85
45813;BME280;31519;45.408;10.962;2023-02-27T08:10:07;100773.31;;;9.52;38.46
45813;BME280;31519;45.408;10.962;2023-02-27T08:12:35;100774.88;;;9.53;38.50
45813;BME280;31519;45.408;10.962;2023-02-27T08:15:04;100773.88;;;9.30;38.72
45813;BME280;31519;45.408;10.962;2023-02-27T08:17:33;100779.78;;;9.27;38.76
45813;BME280;31519;45.408;10.962;2023-02-27T08:20:01;100775.84;;;9.44;38.52
45813;BME280;31519;45.408;10.962;2023-02-27T08:22:31;100769.34;;;9.50;38.83
45813;BME280;31519;45.408;10.962;2023-02-27T08:24:59;100777.88;;;9.65;38.25
45813;BME280;31519;45.408;10.962;2023-02-27T08:27:28;100777.78;;;9.89;38.15
45813;BME280;31519;45.408;10.962;2023-02-27T08:29:56;100778.56;;;9.57;38.03
45813;BME280;31519;45.408;10.962;2023-02-27T08:32:24;100784.47;;;9.68;37.67
45813;BME280;31519;45.408;10.962;2023-02-27T08:34:54;100785.13;;;9.78;37.78
45813;BME280;31519;45.408;10.962;2023-02-27T08:37:24;100775.47;;;9.83;37.55
45813;BME280;31519;45.408;10.962;2023-02-27T08:39:53;100782.25;;;9.75;37.33
45813;BME280;31519;45.408;10.962;2023-02-27T08:42:21;100785.09;;;10.11;37.33
45813;BME280;31519;45.408;10.962;2023-02-27T08:44:52;100785.44;;;9.91;37.17
45813;BME280;31519;45.408;10.962;2023-02-27T08:47:21;100785.75;;;9.89;36.90
45813;BME280;31519;45.408;10.962;2023-02-27T08:49:48;100783.75;;;9.95;37.26
45813;BME280;31519;45.408;10.962;2023-02-27T08:52:17;100784.44;;;10.19;37.02
45813;BME280;31519;45.408;10.962;2023-02-27T08:54:45;100788.63;;;10.06;36.77
45813;BME280;31519;45.408;10.962;2023-02-27T08:57:13;100786.66;;;9.98;37.14
45813;BME280;31519;45.408;10.962;2023-02-27T08:59:41;100788.97;;;9.86;37.12
45813;BME280;31519;45.408;10.962;2023-02-27T09:02:10;100793.34;;;9.96;36.92
45813;BME280;31519;45.408;10.962;2023-02-27T09:04:38;100788.56;;;10.11;36.69
45813;BME280;31519;45.408;10.962;2023-02-27T09:07:06;100796.41;;;10.21;36.04
45813;BME280;31519;45.408;10.962;2023-02-27T09:09:34;100800.16;;;10.34;36.30
45813;BME280;31519;45.408;10.962;2023-02-27T09:12:03;100794.53;;;10.36;36.34
45813;BME280;31519;45.408;10.962;2023-02-27T09:14:31;100798.84;;;10.45;35.94
45813;BME280;31519;45.408;10.962;2023-02-27T09:17:00;100791.00;;;10.68;36.42
45813;BME280;31519;45.408;10.962;2023-02-27T09:19:28;100798.09;;;10.86;35.69
45813;BME280;31519;45.408;10.962;2023-02-27T09:21:56;100800.84;;;10.53;35.67
45813;BME280;31519;45.408;10.962;2023-02-27T09:24:24;100804.09;;;10.64;35.61
45813;BME280;31519;45.408;10.962;2023-02-27T09:26:53;100803.53;;;10.53;35.67
45813;BME280;31519;45.408;10.962;2023-02-27T09:29:21;100799.75;;;10.54;36.05
45813;BME280;31519;45.408;10.962;2023-02-27T09:31:50;100806.38;;;10.84;35.49
45813;BME280;31519;45.408;10.962;2023-02-27T09:34:19;100809.41;;;10.91;35.65
45813;BME280;31519;45.408;10.962;2023-02-27T09:36:47;100805.56;;;10.97;34.87
45813;BME280;31519;45.408;10.962;2023-02-27T09:39:15;100813.91;;;11.04;34.94
45813;BME280;31519;45.408;10.962;2023-02-27T09:42:02;100815.63;;;11.00;35.27
45813;BME280;31519;45.408;10.962;2023-02-27T09:44:38;100824.41;;;10.87;35.21
45813;BME280;31519;45.408;10.962;2023-02-27T09:47:18;100822.50;;;11.15;35.02
45813;BME280;31519;45.408;10.962;2023-02-27T09:49:54;100822.53;;;11.37;34.60
45813;BME280;31519;45.408;10.962;2023-02-27T09:52:26;100823.44;;;11.33;34.36
45813;BME280;31519;45.408;10.962;2023-02-27T09:54:55;100830.31;;;11.47;34.05
45813;BME280;31519;45.408;10.962;2023-02-27T09:57:53;100826.94;;;11.20;34.42
45813;BME280;31519;45.408;10.962;2023-02-27T10:00:47;100825.16;;;11.51;34.16
45813;BME280;31519;45.408;10.962;2023-02-27T10:08:40;100840.03;;;11.66;33.47
45813;BME280;31519;45.408;10.962;2023-02-27T10:11:16;100840.19;;;11.47;33.83
45813;BME280;31519;45.408;10.962;2023-02-27T10:16:37;100835.38;;;12.16;32.87
45813;BME280;31519;45.408;10.962;2023-02-27T10:19:13;100839.16;;;12.15;32.86
45813;BME280;31519;45.408;10.962;2023-02-27T10:21:47;100840.22;;;12.05;32.64
45813;BME280;31519;45.408;10.962;2023-02-27T10:24:26;100838.41;;;12.54;32.81
45813;BME280;31519;45.408;10.962;2023-02-27T10:26:58;100839.28;;;12.10;32.88
45813;BME280;31519;45.408;10.962;2023-02-27T10:29:37;100850.09;;;12.66;32.54
45813;BME280;31519;45.408;10.962;2023-02-27T10:37:48;100840.34;;;12.70;31.88
45813;BME280;31519;45.408;10.962;2023-02-27T10:40:18;100842.81;;;12.58;32.38
45813;BME280;31519;45.408;10.962;2023-02-27T10:42:47;100846.81;;;13.35;31.33
45813;BME280;31519;45.408;10.962;2023-02-27T10:45:17;100841.16;;;13.70;30.69
45813;BME280;31519;45.408;10.962;2023-02-27T10:47:45;100832.03;;;13.71;29.92
45813;BME280;31519;45.408;10.962;2023-02-27T10:50:29;100833.91;;;13.62;29.75
45813;BME280;31519;45.408;10.962;2023-02-27T10:53:00;100842.91;;;13.32;30.34
45813;BME280;31519;45.408;10.962;2023-02-27T10:55:36;100846.16;;;13.20;29.83
45813;BME280;31519;45.408;10.962;2023-02-27T10:58:07;100832.34;;;13.27;30.03
45813;BME280;31519;45.408;10.962;2023-02-27T11:00:42;100832.03;;;13.71;29.15
45813;BME280;31519;45.408;10.962;2023-02-27T11:03:33;100824.78;;;13.72;28.91
45813;BME280;31519;45.408;10.962;2023-02-27T11:08:34;100821.00;;;13.30;29.25
45813;BME280;31519;45.408;10.962;2023-02-27T11:11:07;100830.44;;;13.19;29.42
45813;BME280;31519;45.408;10.962;2023-02-27T11:13:40;100819.91;;;13.83;29.24
45813;BME280;31519;45.408;10.962;2023-02-27T11:16:15;100812.03;;;13.69;29.05
45813;BME280;31519;45.408;10.962;2023-02-27T11:18:46;100822.09;;;13.12;29.65
45813;BME280;31519;45.408;10.962;2023-02-27T11:21:21;100816.91;;;13.75;29.49
45813;BME280;31519;45.408;10.962;2023-02-27T11:24:05;100807.47;;;13.44;29.41
45813;BME280;31519;45.408;10.962;2023-02-27T11:26:41;100808.66;;;13.98;28.85
45813;BME280;31519;45.408;10.962;2023-02-27T11:29:20;100807.94;;;13.63;28.78
45813;BME280;31519;45.408;10.962;2023-02-27T11:32:13;100806.22;;;14.39;28.35
45813;BME280;31519;45.408;10.962;2023-02-27T11:34:49;100806.03;;;13.72;28.40
45813;BME280;31519;45.408;10.962;2023-02-27T11:37:27;100802.91;;;13.79;28.34
45813;BME280;31519;45.408;10.962;2023-02-27T11:40:13;100807.59;;;13.90;28.33
45813;BME280;31519;45.408;10.962;2023-02-27T11:42:51;100800.22;;;13.79;28.40
45813;BME280;31519;45.408;10.962;2023-02-27T11:48:52;100801.59;;;14.02;28.01
45813;BME280;31519;45.408;10.962;2023-02-27T11:56:43;100801.53;;;14.19;28.11
45813;BME280;31519;45.408;10.962;2023-02-27T11:59:38;100794.25;;;14.37;28.31
45813;BME280;31519;45.408;10.962;2023-02-27T12:04:53;100789.53;;;14.92;28.18
45813;BME280;31519;45.408;10.962;2023-02-27T12:07:28;100796.66;;;14.59;28.07
45813;BME280;31519;45.408;10.962;2023-02-27T12:10:21;100801.88;;;15.56;27.28
45813;BME280;31519;45.408;10.962;2023-02-27T12:15:36;100797.66;;;15.46;27.43
45813;BME280;31519;45.408;10.962;2023-02-27T12:18:15;100795.72;;;15.55;27.01
45813;BME280;31519;45.408;10.962;2023-02-27T12:26:44;100807.53;;;16.08;26.81
45813;BME280;31519;45.408;10.962;2023-02-27T12:32:10;100801.31;;;16.40;25.90
45813;BME280;31519;45.408;10.962;2023-02-27T12:34:51;100797.81;;;15.70;26.16
45813;BME280;31519;45.408;10.962;2023-02-27T12:37:26;100796.03;;;15.74;26.15
45813;BME280;31519;45.408;10.962;2023-02-27T12:39:58;100794.84;;;15.63;26.27
45813;BME280;31519;45.408;10.962;2023-02-27T12:43:07;100785.06;;;16.36;25.87
45813;BME280;31519;45.408;10.962;2023-02-27T12:51:27;100792.97;;;16.09;25.92
45813;BME280;31519;45.408;10.962;2023-02-27T12:54:16;100784.50;;;16.43;25.66
45813;BME280;31519;45.408;10.962;2023-02-27T12:56:55;100776.63;;;16.02;25.82
45813;BME280;31519;45.408;10.962;2023-02-27T13:08:13;100777.94;;;15.95;26.46
45813;BME280;31519;45.408;10.962;2023-02-27T13:11:17;100776.94;;;16.00;26.10
45813;BME280;31519;45.408;10.962;2023-02-27T13:14:15;100786.38;;;16.18;25.68
45813;BME280;31519;45.408;10.962;2023-02-27T13:17:02;100780.19;;;16.06;25.90
45813;BME280;31519;45.408;10.962;2023-02-27T13:19:49;100775.75;;;16.22;26.05
45813;BME280;31519;45.408;10.962;2023-02-27T13:24:59;100774.16;;;15.43;26.16
45813;BME280;31519;45.408;10.962;2023-02-27T13:27:37;100785.03;;;14.55;27.08
45813;BME280;31519;45.408;10.962;2023-02-27T13:30:13;100787.28;;;15.24;26.98
45813;BME280;31519;45.408;10.962;2023-02-27T13:35:25;100785.03;;;15.67;26.64
45813;BME280;31519;45.408;10.962;2023-02-27T13:38:01;100785.88;;;15.92;26.58
45813;BME280;31519;45.408;10.962;2023-02-27T13:40:37;100787.03;;;16.03;26.37
45813;BME280;31519;45.408;10.962;2023-02-27T13:43:28;100779.78;;;16.28;26.06
45813;BME280;31519;45.408;10.962;2023-02-27T13:46:26;100790.03;;;15.15;26.68
45813;BME280;31519;45.408;10.962;2023-02-27T13:51:56;100799.66;;;15.16;27.32
45813;BME280;31519;45.408;10.962;2023-02-27T13:54:38;100802.09;;;15.83;26.70
45813;BME280;31519;45.408;10.962;2023-02-27T13:57:19;100804.09;;;15.12;27.11
45813;BME280;31519;45.408;10.962;2023-02-27T13:59:54;100808.41;;;15.04;27.77
45813;BME280;31519;45.408;10.962;2023-02-27T14:02:37;100804.78;;;14.80;28.03
45813;BME280;31519;45.408;10.962;2023-02-27T14:05:36;100804.81;;;14.33;28.49
45813;BME280;31519;45.408;10.962;2023-02-27T14:10:40;100810.47;;;13.59;29.87
45813;BME280;31519;45.408;10.962;2023-02-27T14:27:35;100826.53;;;13.68;30.26
45813;BME280;31519;45.408;10.962;2023-02-27T14:30:25;100831.88;;;13.76;30.50
45813;BME280;31519;45.408;10.962;2023-02-27T14:32:59;100835.03;;;13.53;29.98
45813;BME280;31519;45.408;10.962;2023-02-27T14:35:29;100835.44;;;12.55;31.40
45813;BME280;31519;45.408;10.962;2023-02-27T14:38:04;100844.22;;;13.04;30.99
45813;BME280;31519;45.408;10.962;2023-02-27T14:40:42;100852.16;;;13.17;30.85
45813;BME280;31519;45.408;10.962;2023-02-27T14:43:31;100851.31;;;13.08;30.76
45813;BME280;31519;45.408;10.962;2023-02-27T14:46:20;100845.66;;;13.01;31.11
45813;BME280;31519;45.408;10.962;2023-02-27T14:48:58;100853.03;;;13.04;30.70
45813;BME280;31519;45.408;10.962;2023-02-27T14:51:29;100848.41;;;13.27;30.59
45813;BME280;31519;45.408;10.962;2023-02-27T14:56:34;100853.75;;;13.44;30.35
45813;BME280;31519;45.408;10.962;2023-02-27T14:59:23;100851.69;;;12.76;31.35
45813;BME280;31519;45.408;10.962;2023-02-27T15:01:54;100855.88;;;13.08;31.39
45813;BME280;31519;45.408;10.962;2023-02-27T15:04:27;100854.84;;;13.35;31.56
45813;BME280;31519;45.408;10.962;2023-02-27T15:06:57;100864.28;;;13.32;31.10
45813;BME280;31519;45.408;10.962;2023-02-27T15:09:36;100864.63;;;13.48;30.86
45813;BME280;31519;45.408;10.962;2023-02-27T15:12:05;100862.69;;;13.22;30.80
45813;BME280;31519;45.408;10.962;2023-02-27T15:14:36;100854.69;;;13.22;31.06
45813;BME280;31519;45.408;10.962;2023-02-27T15:17:20;100863.28;;;13.11;31.00
45813;BME280;31519;45.408;10.962;2023-02-27T15:19:55;100864.38;;;13.10;31.55
45813;BME280;31519;45.408;10.962;2023-02-27T15:22:28;100872.78;;;13.25;31.22
45813;BME280;31519;45.408;10.962;2023-02-27T15:25:25;100866.47;;;13.13;31.68
45813;BME280;31519;45.408;10.962;2023-02-27T15:27:58;100874.13;;;13.06;31.43
45813;BME280;31519;45.408;10.962;2023-02-27T15:30:28;100868.16;;;13.09;31.07
45813;BME280;31519;45.408;10.962;2023-02-27T15:33:00;100866.31;;;13.26;31.26
45813;BME280;31519;45.408;10.962;2023-02-27T15:35:34;100877.66;;;13.15;31.27
45813;BME280;31519;45.408;10.962;2023-02-27T15:38:03;100883.25;;;13.05;31.10
45813;BME280;31519;45.408;10.962;2023-02-27T15:40:33;100878.59;;;13.19;31.19
45813;BME280;31519;45.408;10.962;2023-02-27T15:43:03;100891.06;;;13.32;30.91